createdAt,value
2019-03-11T00:17:27.401Z,3.90
2019-03-11T00:23:17.473Z,3.90
2019-03-11T00:25:48.086Z,3.90
2019-03-11T00:28:29.388Z,3.80
2019-03-11T00:32:14.808Z,3.80
2019-03-11T00:36:04.189Z,3.80
2019-03-11T00:37:53.473Z,3.90
2019-03-11T00:40:24.122Z,3.90
2019-03-11T00:42:55.938Z,3.90
2019-03-11T00:45:27.852Z,4.00
2019-03-11T00:53:32.489Z,4.10
2019-03-11T01:07:01.368Z,4.00
2019-03-11T01:09:35.171Z,4.00
2019-03-11T01:12:54.909Z,4.00
2019-03-11T01:15:26.602Z,4.10
2019-03-11T01:18:05.685Z,4.10
2019-03-11T01:20:39.223Z,4.00
2019-03-11T01:23:13.875Z,3.90
2019-03-11T01:25:46.903Z,3.90
2019-03-11T01:28:58.647Z,3.80
2019-03-11T01:32:06.505Z,3.80
2019-03-11T01:35:19.383Z,3.80
2019-03-11T01:41:18.707Z,3.70
2019-03-11T01:43:51.333Z,3.70
2019-03-11T01:57:25.745Z,3.80
2019-03-11T02:03:55.006Z,3.80
2019-03-11T02:06:55.360Z,3.80
2019-03-11T02:09:35.404Z,3.80
2019-03-11T02:31:37.884Z,3.70
2019-03-11T02:34:53.807Z,3.80
2019-03-11T02:38:36.609Z,3.80
2019-03-11T04:10:11.643Z,4.00
2019-03-11T04:16:34.555Z,4.10
2019-03-11T04:19:39.346Z,4.20
2019-03-11T04:22:19.142Z,4.30
2019-03-11T04:28:57.176Z,4.20
2019-03-11T04:31:35.210Z,4.10
2019-03-11T04:34:53.036Z,4.10
2019-03-11T04:37:34.505Z,4.20
2019-03-11T04:40:49.358Z,4.20
2019-03-11T04:43:30.099Z,4.20
2019-03-11T04:49:34.524Z,4.20
2019-03-11T04:52:12.852Z,4.20
2019-03-11T04:54:59.843Z,4.20
2019-03-11T04:57:49.483Z,4.20
2019-03-11T05:01:09.931Z,4.20
2019-03-11T05:04:30.413Z,4.10
2019-03-11T05:08:31.663Z,4.10
2019-03-11T05:11:13.817Z,4.20
2019-03-11T05:13:54.514Z,4.10
2019-03-11T05:16:26.473Z,4.00
2019-03-11T05:19:34.605Z,3.70
2019-03-11T05:22:24.617Z,3.50
2019-03-11T05:25:14.810Z,3.30
2019-03-11T05:28:20.808Z,3.20
2019-03-11T05:31:09.613Z,3.20
2019-03-11T05:33:39.911Z,3.10
2019-03-11T05:36:24.585Z,3.10
2019-03-11T05:39:29.586Z,3.20
2019-03-11T05:42:00.171Z,3.20
2019-03-11T05:44:55.682Z,3.20
2019-03-11T05:47:27.883Z,3.20
2019-03-11T05:49:58.911Z,3.20
2019-03-11T05:52:32.177Z,3.20
2019-03-11T05:55:09.964Z,3.20
2019-03-11T06:05:51.223Z,3.30
2019-03-11T06:08:33.782Z,3.30
2019-03-11T06:11:08.168Z,3.30
2019-03-11T06:13:37.443Z,3.30
2019-03-11T06:16:07.059Z,3.30
2019-03-11T06:18:41.047Z,3.30
2019-03-11T06:21:27.774Z,3.30
2019-03-11T06:23:57.183Z,3.40
2019-03-11T06:26:39.272Z,3.40
2019-03-11T06:29:15.378Z,3.40
2019-03-11T06:31:52.360Z,3.50
2019-03-11T06:34:21.906Z,3.50
2019-03-11T06:36:51.227Z,3.60
2019-03-11T06:43:07.649Z,3.70
2019-03-11T06:46:05.918Z,3.80
2019-03-11T06:48:48.660Z,3.80
2019-03-11T06:58:18.718Z,4.00
2019-03-11T07:07:46.788Z,4.20
2019-03-11T07:10:44.577Z,4.30
2019-03-11T07:13:13.852Z,4.40
2019-03-11T07:15:49.258Z,4.50
2019-03-11T07:18:37.976Z,4.60
2019-03-11T07:21:09.164Z,4.50
2019-03-11T07:23:39.437Z,4.40
2019-03-11T07:26:08.988Z,4.40
2019-03-11T07:28:40.513Z,4.50
2019-03-11T07:31:09.981Z,4.50
2019-03-11T07:33:40.361Z,4.60
2019-03-11T07:36:09.837Z,4.60
2019-03-11T07:38:40.966Z,4.70
2019-03-11T07:41:10.620Z,4.80
2019-03-11T07:43:40.060Z,4.80
2019-03-11T07:46:13.561Z,4.80
2019-03-11T07:48:43.130Z,4.80
2019-03-11T07:51:13.429Z,4.80
2019-03-11T07:53:49.551Z,4.90
2019-03-11T07:56:20.123Z,4.90
2019-03-11T07:58:51.751Z,4.90
2019-03-11T08:01:21.484Z,5.00
2019-03-11T08:03:52.139Z,5.00
2019-03-11T08:06:28.325Z,5.00
2019-03-11T08:08:59.767Z,5.00
2019-03-11T08:11:29.167Z,4.80
2019-03-11T08:13:59.531Z,4.60
2019-03-11T08:16:32.750Z,4.50
2019-03-11T08:19:05.862Z,4.50
2019-03-11T08:21:36.181Z,4.50
2019-03-11T08:24:06.983Z,4.60
2019-03-11T08:26:37.233Z,4.60
2019-03-11T08:29:06.788Z,4.50
2019-03-11T08:31:37.163Z,4.50
2019-03-11T08:34:06.600Z,4.40
2019-03-11T08:36:36.190Z,4.40
2019-03-11T08:39:08.080Z,4.40
2019-03-11T08:41:38.456Z,4.40
2019-03-11T08:44:08.105Z,4.30
2019-03-11T08:46:37.532Z,4.20
2019-03-11T08:49:06.940Z,4.10
2019-03-11T08:51:36.549Z,4.00
2019-03-11T08:54:06.862Z,4.00
2019-03-11T08:56:37.946Z,4.20
2019-03-11T08:59:07.394Z,4.40
2019-03-11T09:01:38.948Z,4.60
2019-03-11T09:04:10.704Z,4.60
2019-03-11T09:06:40.003Z,4.60
2019-03-11T09:09:12.228Z,4.70
2019-03-11T09:11:41.490Z,4.70
2019-03-11T09:14:10.963Z,4.70
2019-03-11T09:16:41.160Z,4.80
2019-03-11T09:19:10.438Z,4.90
2019-03-11T09:21:39.888Z,4.90
2019-03-11T09:24:18.784Z,5.00
2019-03-11T09:26:40.585Z,5.10
2019-03-11T09:29:12.095Z,5.20
2019-03-11T09:31:41.702Z,5.30
2019-03-11T09:34:11.141Z,5.20
2019-03-11T09:36:40.610Z,5.10
2019-03-11T09:39:11.857Z,4.80
2019-03-11T09:41:41.323Z,4.70
2019-03-11T09:44:11.593Z,4.60
2019-03-11T09:46:41.099Z,4.70
2019-03-11T09:49:10.643Z,4.90
2019-03-11T09:51:40.107Z,5.00
2019-03-11T09:54:10.673Z,5.10
2019-03-11T09:56:43.498Z,5.30
2019-03-11T09:59:11.931Z,5.40
2019-03-11T10:01:41.445Z,5.60
2019-03-11T10:04:10.974Z,5.60
2019-03-11T10:06:40.491Z,5.70
2019-03-11T10:09:09.973Z,5.70
2019-03-11T10:11:39.517Z,5.70
2019-03-11T10:14:13.121Z,5.50
2019-03-11T10:16:43.842Z,5.60
2019-03-11T10:19:13.339Z,5.70
2019-03-11T10:21:42.829Z,5.70
2019-03-11T10:24:12.301Z,5.80
2019-03-11T10:26:41.805Z,5.80
2019-03-11T10:29:12.375Z,5.90
2019-03-11T10:31:41.703Z,5.90
2019-03-11T10:34:11.211Z,6.00
2019-03-11T10:36:40.682Z,6.10
2019-03-11T10:39:10.272Z,6.20
2019-03-11T10:41:41.741Z,6.30
2019-03-11T10:44:11.256Z,6.00
2019-03-11T10:46:40.760Z,6.00
2019-03-11T10:49:10.332Z,6.20
2019-03-11T10:51:39.705Z,6.30
2019-03-11T10:54:10.930Z,6.30
2019-03-11T11:00:22.713Z,6.30
2019-03-11T11:02:51.909Z,6.40
2019-03-11T11:05:21.524Z,6.50
2019-03-11T11:07:50.970Z,6.60
2019-03-11T11:10:20.396Z,6.70
2019-03-11T11:12:49.954Z,6.80
2019-03-11T11:15:21.152Z,6.70
2019-03-11T11:17:51.586Z,6.80
2019-03-11T11:20:22.329Z,6.70
2019-03-11T11:22:58.674Z,6.80
2019-03-11T11:25:28.180Z,6.80
2019-03-11T11:27:58.838Z,6.90
2019-03-11T11:30:31.044Z,7.00
2019-03-11T11:33:03.741Z,7.20
2019-03-11T11:35:35.342Z,7.30
2019-03-11T11:38:07.669Z,7.20
2019-03-11T11:40:39.166Z,7.30
2019-03-11T11:43:30.709Z,7.40
2019-03-11T11:46:00.289Z,7.50
2019-03-11T11:48:33.816Z,7.40
2019-03-11T11:51:05.408Z,7.50
2019-03-11T11:53:44.127Z,7.40
2019-03-11T11:56:13.521Z,7.30
2019-03-11T11:59:09.857Z,7.30
2019-03-11T12:01:42.279Z,7.20
2019-03-11T12:04:13.576Z,7.20
2019-03-11T12:06:42.982Z,7.30
2019-03-11T12:09:13.577Z,7.60
2019-03-11T12:11:43.199Z,7.70
2019-03-11T12:14:12.788Z,7.60
2019-03-11T12:16:42.212Z,7.50
2019-03-11T12:19:11.487Z,7.50
2019-03-11T12:21:40.811Z,7.50
2019-03-11T12:24:11.055Z,7.40
2019-03-11T12:26:41.337Z,7.50
2019-03-11T12:29:14.980Z,7.60
2019-03-11T12:31:44.680Z,7.70
2019-03-11T12:34:14.062Z,7.60
2019-03-11T12:36:43.627Z,7.60
2019-03-11T12:39:13.091Z,7.60
2019-03-11T12:41:54.893Z,7.80
2019-03-11T12:44:24.349Z,7.80
2019-03-11T12:46:54.052Z,7.70
2019-03-11T12:49:27.300Z,7.70
2019-03-11T12:51:58.594Z,7.70
2019-03-11T12:54:29.226Z,7.60
2019-03-11T12:57:00.575Z,7.80
2019-03-11T12:59:30.010Z,7.80
2019-03-11T13:02:02.425Z,7.80
2019-03-11T13:04:35.004Z,7.80
2019-03-11T13:07:06.782Z,8.00
2019-03-11T13:09:36.258Z,7.90
2019-03-11T13:12:05.798Z,7.80
2019-03-11T13:14:35.244Z,7.80
2019-03-11T13:17:08.821Z,7.70
2019-03-11T13:19:38.390Z,7.70
2019-03-11T13:22:16.477Z,7.80
2019-03-11T13:24:45.984Z,7.90
2019-03-11T13:27:17.589Z,7.80
2019-03-11T13:29:49.994Z,7.80
2019-03-11T13:32:23.082Z,7.90
2019-03-11T13:34:57.923Z,7.90
2019-03-11T13:37:34.174Z,7.90
2019-03-11T13:40:09.009Z,8.00
2019-03-11T13:42:38.750Z,7.80
2019-03-11T13:45:16.364Z,7.80
2019-03-11T13:47:46.209Z,7.80
2019-03-11T13:50:15.541Z,7.80
2019-03-11T13:52:47.197Z,7.80
2019-03-11T13:55:17.792Z,7.80
2019-03-11T13:57:48.071Z,7.90
2019-03-11T14:00:24.573Z,8.00
2019-03-11T14:02:55.041Z,7.90
2019-03-11T14:05:25.947Z,7.80
2019-03-11T14:07:58.696Z,7.80
2019-03-11T14:10:38.986Z,7.80
2019-03-11T14:13:09.341Z,7.80
2019-03-11T14:15:43.016Z,7.80
2019-03-11T14:18:13.175Z,7.80
2019-03-11T14:20:46.015Z,7.90
2019-03-11T14:23:30.094Z,7.90
2019-03-11T14:26:07.407Z,8.00
2019-03-11T14:28:43.731Z,8.10
2019-03-11T14:31:18.331Z,8.20
2019-03-11T14:33:51.030Z,8.10
2019-03-11T14:36:50.737Z,8.00
2019-03-11T14:39:20.153Z,7.90
2019-03-11T14:42:12.944Z,7.80
2019-03-11T14:44:45.908Z,7.60
2019-03-11T14:47:15.211Z,7.60
2019-03-11T14:49:47.582Z,7.60
2019-03-11T14:52:19.308Z,7.80
2019-03-11T14:54:54.158Z,7.90
2019-03-11T14:57:23.776Z,7.90
2019-03-11T14:59:59.758Z,8.10
2019-03-11T15:02:36.279Z,8.20
2019-03-11T15:05:07.375Z,8.30
2019-03-11T15:07:41.244Z,8.50
2019-03-11T15:10:12.364Z,8.50
2019-03-11T15:12:53.204Z,8.40
2019-03-11T15:15:32.271Z,8.50
2019-03-11T15:18:03.266Z,8.60
2019-03-11T15:20:33.638Z,8.50
2019-03-11T15:23:18.634Z,8.30
2019-03-11T15:26:08.979Z,8.30
2019-03-11T15:28:38.454Z,8.40
2019-03-11T15:31:11.104Z,8.20
2019-03-11T15:33:41.569Z,8.10
2019-03-11T15:36:13.100Z,8.20
2019-03-11T15:38:45.792Z,8.10
2019-03-11T15:41:17.689Z,8.00
2019-03-11T15:43:54.474Z,7.90
2019-03-11T15:46:25.187Z,7.90
2019-03-11T15:49:08.066Z,7.80
2019-03-11T15:51:39.759Z,7.80
2019-03-11T15:54:11.537Z,7.70
2019-03-11T15:56:45.834Z,7.60
2019-03-11T15:59:15.664Z,7.60
2019-03-11T16:01:48.247Z,7.60
2019-03-11T16:04:28.479Z,7.60
2019-03-11T16:07:02.423Z,7.60
2019-03-11T16:12:30.343Z,7.60
2019-03-11T16:15:03.891Z,7.70
2019-03-11T16:17:38.903Z,7.70
2019-03-11T16:20:17.134Z,7.70
2019-03-11T16:22:52.417Z,7.70
2019-03-11T16:25:22.847Z,7.70
2019-03-11T16:27:57.953Z,7.70
2019-03-11T16:30:56.067Z,7.80
2019-03-11T16:33:47.377Z,7.80
2019-03-11T16:36:20.463Z,7.80
2019-03-11T16:38:51.677Z,7.80
2019-03-11T16:41:22.059Z,7.80
2019-03-11T16:43:54.331Z,7.80
2019-03-11T16:46:35.739Z,7.80
2019-03-11T16:49:31.386Z,7.80
2019-03-11T16:52:25.752Z,7.70
2019-03-11T16:54:58.537Z,7.60
2019-03-11T16:57:44.137Z,7.50
2019-03-11T17:00:22.230Z,7.50
2019-03-11T17:03:04.156Z,7.50
2019-03-11T17:05:33.721Z,7.40
2019-03-11T17:08:06.119Z,7.40
2019-03-11T17:10:35.417Z,7.30
2019-03-11T17:13:08.930Z,7.30
2019-03-11T17:15:38.489Z,7.20
2019-03-11T17:18:08.093Z,7.20
2019-03-11T17:26:27.688Z,7.20
2019-03-11T17:28:57.200Z,7.20
2019-03-11T17:31:28.698Z,7.20
2019-03-11T17:33:58.287Z,7.20
2019-03-11T17:36:27.806Z,7.10
2019-03-11T17:38:57.248Z,7.10
2019-03-11T17:41:26.755Z,7.10
2019-03-11T17:43:56.326Z,7.00
2019-03-11T17:46:25.774Z,7.00
2019-03-11T17:48:55.308Z,7.00
2019-03-11T17:51:26.895Z,6.90
2019-03-11T17:53:56.349Z,6.90
2019-03-11T17:56:28.898Z,6.90
2019-03-11T17:58:58.284Z,6.80
2019-03-11T18:01:27.805Z,6.80
2019-03-11T18:03:57.311Z,6.70
2019-03-11T18:06:27.702Z,6.80
2019-03-11T18:08:57.052Z,6.70
2019-03-11T18:11:27.478Z,6.70
2019-03-11T18:13:57.002Z,6.70
2019-03-11T18:16:27.382Z,6.70
2019-03-11T18:18:56.718Z,6.70
2019-03-11T18:21:26.257Z,6.60
2019-03-11T18:23:55.799Z,6.50
2019-03-11T18:26:25.251Z,6.50
2019-03-11T18:28:55.648Z,6.40
2019-03-11T18:31:27.189Z,6.40
2019-03-11T18:33:56.604Z,6.40
2019-03-11T18:36:26.949Z,6.30
2019-03-11T18:38:56.527Z,6.30
2019-03-11T18:41:25.948Z,6.30
2019-03-11T18:43:55.481Z,6.20
2019-03-11T18:46:25.021Z,6.10
2019-03-11T18:48:54.498Z,6.10
2019-03-11T18:51:24.026Z,6.10
2019-03-11T18:53:53.615Z,6.10
2019-03-11T18:56:23.070Z,6.00
2019-03-11T18:58:52.538Z,6.00
2019-03-11T19:01:22.836Z,6.00
2019-03-11T19:03:52.343Z,5.90
2019-03-11T19:06:21.934Z,5.90
2019-03-11T19:08:51.548Z,5.90
2019-03-11T19:11:33.080Z,5.80
2019-03-11T19:14:51.285Z,5.70
2019-03-11T19:17:33.601Z,5.60
2019-03-11T19:20:03.171Z,5.50
2019-03-11T19:22:32.598Z,5.50
2019-03-11T19:25:04.290Z,5.50
2019-03-11T19:27:33.783Z,5.40
2019-03-11T19:30:04.784Z,5.30
2019-03-11T19:32:34.449Z,5.30
2019-03-11T19:35:04.198Z,5.20
2019-03-11T19:37:33.775Z,5.20
2019-03-11T19:40:03.424Z,5.10
2019-03-11T19:42:32.751Z,5.10
2019-03-11T19:45:02.293Z,5.10
2019-03-11T19:47:31.815Z,5.10
2019-03-11T19:50:07.327Z,5.10
2019-03-11T19:52:37.995Z,5.00
2019-03-11T19:55:09.473Z,5.00
2019-03-11T19:57:38.814Z,5.00
2019-03-11T20:00:12.595Z,5.00
2019-03-11T20:02:42.812Z,4.90
2019-03-11T20:05:33.938Z,4.90
2019-03-11T20:08:03.489Z,4.90
2019-03-11T20:10:33.054Z,4.90
2019-03-11T20:13:03.915Z,4.90
2019-03-11T20:15:34.474Z,4.80
2019-03-11T20:18:03.915Z,4.80
2019-03-11T20:20:35.241Z,4.80
2019-03-11T20:23:06.244Z,4.70
2019-03-11T20:25:35.824Z,4.70
2019-03-11T20:28:05.753Z,4.60
2019-03-11T20:30:36.821Z,4.60
2019-03-11T20:33:29.579Z,4.50
2019-03-11T20:35:59.150Z,4.50
2019-03-11T20:38:29.527Z,4.40
2019-03-11T20:40:59.246Z,4.40
2019-03-11T20:43:28.669Z,4.30
2019-03-11T20:45:58.031Z,4.30
2019-03-11T20:48:28.448Z,4.30
2019-03-11T20:50:59.237Z,4.20
2019-03-11T20:53:28.632Z,4.20
2019-03-11T20:56:09.262Z,4.20
2019-03-11T20:58:41.534Z,4.30
2019-03-11T21:01:11.055Z,4.30
2019-03-11T21:03:40.510Z,4.20
2019-03-11T21:06:10.163Z,4.20
2019-03-11T21:08:39.594Z,4.30
2019-03-11T21:11:10.107Z,4.30
2019-03-11T21:13:40.793Z,4.30
2019-03-11T21:16:11.693Z,4.30
2019-03-11T21:18:41.260Z,4.30
2019-03-11T21:21:12.887Z,4.30
2019-03-11T21:23:42.761Z,4.30
2019-03-11T21:26:12.516Z,4.20
2019-03-11T21:28:44.148Z,4.20
2019-03-11T21:31:18.129Z,4.20
2019-03-11T21:33:58.015Z,4.20
2019-03-11T21:36:19.199Z,4.20
2019-03-11T21:38:49.655Z,4.20
2019-03-11T21:41:20.568Z,4.20
2019-03-11T21:43:51.158Z,4.20
2019-03-11T21:46:20.581Z,4.20
2019-03-11T21:48:50.265Z,4.20
2019-03-11T21:51:19.644Z,4.20
2019-03-11T21:53:55.178Z,4.20
2019-03-11T21:56:28.504Z,4.20
2019-03-11T21:58:59.118Z,4.20
2019-03-11T22:01:29.453Z,4.20
2019-03-11T22:03:59.263Z,4.20
2019-03-11T22:06:33.806Z,4.20
2019-03-11T22:09:09.401Z,4.20
2019-03-11T22:11:39.015Z,4.20
2019-03-11T22:14:08.655Z,4.20
2019-03-11T22:16:44.002Z,4.20
2019-03-11T22:19:14.455Z,4.20
2019-03-11T22:21:45.366Z,4.20
2019-03-11T22:24:14.750Z,4.20
2019-03-11T22:26:44.990Z,4.20
2019-03-11T22:29:14.487Z,4.20
2019-03-11T22:31:43.692Z,4.20
2019-03-11T22:34:13.125Z,4.20
2019-03-11T22:36:43.454Z,4.20
2019-03-11T22:39:13.073Z,4.20
2019-03-11T22:41:42.494Z,4.10
2019-03-11T22:44:11.960Z,4.10
2019-03-11T22:46:43.287Z,4.10
2019-03-11T22:49:13.197Z,4.10
2019-03-11T22:51:42.894Z,4.00
2019-03-11T22:54:19.109Z,4.00
2019-03-11T22:56:48.488Z,3.90
2019-03-11T22:59:19.639Z,3.90
2019-03-11T23:01:49.204Z,3.90
2019-03-11T23:04:18.657Z,3.90
2019-03-11T23:06:48.592Z,3.80
2019-03-11T23:09:19.116Z,3.80
2019-03-11T23:11:49.872Z,3.80
2019-03-11T23:14:20.356Z,3.80
2019-03-11T23:16:53.593Z,3.70
2019-03-11T23:19:23.867Z,3.70
2019-03-11T23:21:53.469Z,3.60
2019-03-11T23:24:22.928Z,3.60
2019-03-11T23:26:54.479Z,3.60
2019-03-11T23:29:28.344Z,3.60
2019-03-11T23:31:57.965Z,3.60
2019-03-11T23:34:27.517Z,3.60
2019-03-11T23:36:57.772Z,3.50
2019-03-11T23:39:27.278Z,3.50
2019-03-11T23:41:56.842Z,3.50
2019-03-11T23:44:28.355Z,3.50
2019-03-11T23:46:58.648Z,3.60
2019-03-11T23:49:34.689Z,3.60
2019-03-11T23:52:05.934Z,3.60
2019-03-11T23:54:35.404Z,3.60
2019-03-11T23:57:05.344Z,3.70
2019-03-11T23:59:34.807Z,3.70
